Time;durP1;ratioP1;P1;durP2;ratioP2;P2;SDS_P1;SDS_P2;PMS_P1;PMS_P2;Temp;Humidity;BMP_temperature;BMP_pressure;BME280_temperature;BME280_humidity;BME280_pressure;Samples;Min_cycle;Max_cycle;Signal;HPM_P1;HPM_P2
2022/09/10 00:02:12;;;;;;;;;;;;;;;16.21;87.01;99942.69;5030071;28;1251;-84
2022/09/10 00:04:38;;;;;;;;;;;;;;;16.17;86.68;99936.19;5001965;28;1898;-84
2022/09/10 00:07:03;;;;;;;;;;;;;;;16.20;86.25;99948.53;5022794;28;1216;-84
2022/09/10 00:09:28;;;;;;;;;;;;;;;16.19;87.10;99949.66;5026202;28;1434;-84
2022/09/10 00:11:53;;;;;;;;;;;;;;;16.19;86.57;99950.47;5015188;28;1376;-84
2022/09/10 00:14:20;;;;;;;;;;;;;;;16.11;86.80;99947.75;5016560;28;1268;-84
2022/09/10 00:16:46;;;;;;;;;;;;;;;16.11;87.34;99965.13;5026607;28;1311;-85
2022/09/10 00:19:11;;;;;;;;;;;;;;;16.13;87.05;99959.28;5020913;28;1442;-84
2022/09/10 00:21:36;;;;;;;;;;;;;;;16.05;87.18;99960.94;5015272;28;1323;-85
2022/09/10 00:24:03;;;;;;;;;;;;;;;16.09;87.08;99959.13;5018862;28;1969;-85
2022/09/10 00:26:30;;;;;;;;;;;;;;;16.12;87.27;99964.00;5021505;28;1373;-84
2022/09/10 00:28:58;;;;;;;;;;;;;;;16.14;87.13;99963.66;5023522;28;1473;-84
2022/09/10 00:31:23;;;;;;;;;;;;;;;16.09;87.26;99969.34;5014429;28;1249;-84
2022/09/10 00:33:49;;;;;;;;;;;;;;;16.05;87.07;99965.66;5022757;28;1380;-84
2022/09/10 00:36:18;;;;;;;;;;;;;;;16.04;87.19;99964.84;5039771;28;1217;-84
2022/09/10 00:38:44;;;;;;;;;;;;;;;16.08;87.41;99982.34;5023540;28;1384;-83
2022/09/10 00:41:09;;;;;;;;;;;;;;;16.12;87.13;99977.81;5038749;28;1311;-84
2022/09/10 00:43:47;;;;;;;;;;;;;;;16.13;87.47;99973.91;5024588;28;1968;-85
2022/09/10 00:46:13;;;;;;;;;;;;;;;16.13;87.68;99968.38;5016082;28;1619;-85
2022/09/10 00:48:39;;;;;;;;;;;;;;;16.12;87.56;99972.28;5020159;28;1306;-86
2022/09/10 00:51:04;;;;;;;;;;;;;;;16.08;88.05;99973.25;5032021;28;1431;-85
2022/09/10 00:53:30;;;;;;;;;;;;;;;16.12;87.93;99982.50;5034972;28;1127;-85
2022/09/10 00:55:58;;;;;;;;;;;;;;;16.12;87.96;99988.03;5019303;28;1523;-85
2022/09/10 00:58:24;;;;;;;;;;;;;;;16.14;87.97;99975.53;5008267;28;1374;-86
2022/09/10 01:00:53;;;;;;;;;;;;;;;16.00;88.36;99974.91;5026971;28;1281;-85
2022/09/10 01:03:19;;;;;;;;;;;;;;;16.09;88.81;99977.63;5041180;28;1960;-85
2022/09/10 01:05:46;;;;;;;;;;;;;;;16.10;88.62;99977.31;5030350;28;1378;-85
2022/09/10 01:08:12;;;;;;;;;;;;;;;16.15;88.58;99973.59;5018137;28;1457;-86
2022/09/10 01:10:42;;;;;;;;;;;;;;;16.17;87.86;99980.38;5028814;28;1362;-85
2022/09/10 01:13:13;;;;;;;;;;;;;;;16.15;88.52;99977.16;5040533;28;1555;-86
2022/09/10 01:15:39;;;;;;;;;;;;;;;16.10;88.56;99969.03;5047950;28;1296;-85
2022/09/10 01:18:10;;;;;;;;;;;;;;;16.11;88.77;99978.94;5030586;28;1267;-85
2022/09/10 01:20:45;;;;;;;;;;;;;;;16.09;88.52;99980.41;5014767;28;1536;-85
2022/09/10 01:23:24;;;;;;;;;;;;;;;16.13;88.91;99978.63;5009988;28;1925;-85
2022/09/10 01:26:02;;;;;;;;;;;;;;;16.12;88.45;99986.09;5051614;28;1244;-85
2022/09/10 01:28:32;;;;;;;;;;;;;;;16.06;88.78;99987.41;5022298;28;1363;-86
2022/09/10 01:31:02;;;;;;;;;;;;;;;16.05;88.80;99982.22;5033964;28;1451;-85
2022/09/10 01:33:31;;;;;;;;;;;;;;;16.01;88.77;99979.28;5024452;28;1457;-85
2022/09/10 01:35:58;;;;;;;;;;;;;;;16.02;89.13;99982.88;5033844;28;1668;-85
2022/09/10 01:38:30;;;;;;;;;;;;;;;16.02;88.56;99982.88;5023938;28;1137;-85
2022/09/10 01:40:56;;;;;;;;;;;;;;;16.03;88.82;99979.78;5013080;28;1331;-85
2022/09/10 01:43:21;;;;;;;;;;;;;;;16.05;88.86;99979.44;5023831;28;1962;-85
2022/09/10 01:45:46;;;;;;;;;;;;;;;16.05;88.54;99973.94;5034220;28;1321;-85
2022/09/10 01:48:27;;;;;;;;;;;;;;;16.04;88.70;99975.88;5024402;28;1572;-85
2022/09/10 01:51:13;;;;;;;;;;;;;;;16.02;88.79;99983.69;5038300;28;1413;-85
2022/09/10 01:53:39;;;;;;;;;;;;;;;16.01;89.02;99982.06;5037229;28;1356;-85
2022/09/10 01:56:10;;;;;;;;;;;;;;;16.03;89.00;99979.78;5034094;28;1433;-85
2022/09/10 01:58:37;;;;;;;;;;;;;;;16.00;89.16;99980.44;5023185;28;1383;-85
2022/09/10 02:01:08;;;;;;;;;;;;;;;16.00;89.25;99974.91;5044867;28;1419;-85
2022/09/10 02:03:34;;;;;;;;;;;;;;;16.03;89.13;99979.78;5009412;28;1898;-85
2022/09/10 02:06:01;;;;;;;;;;;;;;;15.99;89.26;99976.03;5018212;28;1393;-86
2022/09/10 02:08:29;;;;;;;;;;;;;;;16.03;89.24;99976.22;5025335;28;1243;-85
2022/09/10 02:10:58;;;;;;;;;;;;;;;15.98;89.42;99979.97;5012765;28;1259;-85
2022/09/10 02:13:23;;;;;;;;;;;;;;;15.99;89.42;99972.50;5028367;28;1295;-85
2022/09/10 02:15:50;;;;;;;;;;;;;;;15.96;89.65;99979.47;5024649;28;1319;-84
2022/09/10 02:18:16;;;;;;;;;;;;;;;15.89;89.44;99970.91;5027397;28;1768;-86
2022/09/10 02:20:41;;;;;;;;;;;;;;;15.92;89.76;99970.22;5010496;28;1501;-86
2022/09/10 02:23:06;;;;;;;;;;;;;;;15.97;89.54;99969.25;5026553;28;1521;-85
2022/09/10 02:25:33;;;;;;;;;;;;;;;15.98;89.80;99970.88;5025711;28;1894;-86
2022/09/10 02:27:58;;;;;;;;;;;;;;;15.97;89.38;99975.59;5016422;28;1710;-85
2022/09/10 02:30:24;;;;;;;;;;;;;;;15.96;89.33;99976.72;5001312;28;792;-85
2022/09/10 02:32:49;;;;;;;;;;;;;;;15.96;89.38;99976.72;5020955;28;1915;-85
2022/09/10 02:35:14;;;;;;;;;;;;;;;15.94;89.83;99980.94;5025128;28;1481;-85
2022/09/10 02:37:40;;;;;;;;;;;;;;;15.92;90.02;99977.69;5046796;28;1175;-85
2022/09/10 02:40:05;;;;;;;;;;;;;;;15.93;89.97;99971.03;5019927;28;1336;-85
2022/09/10 02:42:31;;;;;;;;;;;;;;;15.93;90.05;99974.59;5023354;28;1869;-86
2022/09/10 02:44:56;;;;;;;;;;;;;;;15.94;89.87;99978.19;5022693;28;1886;-85
2022/09/10 02:47:21;;;;;;;;;;;;;;;15.94;89.63;99978.19;5032671;28;1482;-86
2022/09/10 02:49:47;;;;;;;;;;;;;;;15.86;89.92;99977.88;5029358;28;1306;-85
2022/09/10 02:52:12;;;;;;;;;;;;;;;15.85;89.98;99976.25;5037256;28;1217;-86
2022/09/10 02:54:37;;;;;;;;;;;;;;;15.84;89.70;99976.56;5030874;28;1678;-84
2022/09/10 02:57:02;;;;;;;;;;;;;;;15.87;89.92;99975.94;5036850;28;1926;-85
2022/09/10 02:59:28;;;;;;;;;;;;;;;15.86;90.30;99979.81;5043640;28;1200;-85
2022/09/10 03:01:53;;;;;;;;;;;;;;;15.86;90.33;99977.88;5037801;28;1349;-85
2022/09/10 03:04:18;;;;;;;;;;;;;;;15.85;90.28;99972.69;5031550;28;1901;-85
2022/09/10 03:06:44;;;;;;;;;;;;;;;15.84;90.47;99969.09;5046755;28;1425;-85
2022/09/10 03:09:10;;;;;;;;;;;;;;;15.83;90.35;99970.25;5008382;28;1412;-85
2022/09/10 03:11:39;;;;;;;;;;;;;;;15.84;90.80;99974.63;5041538;28;1533;-85
2022/09/10 03:14:05;;;;;;;;;;;;;;;15.83;90.61;99966.66;5044040;28;1486;-85
2022/09/10 03:16:30;;;;;;;;;;;;;;;15.80;90.43;99975.63;5023078;28;1293;-85
2022/09/10 03:18:55;;;;;;;;;;;;;;;15.84;90.22;99979.34;5017522;28;1063;-85
2022/09/10 03:21:23;;;;;;;;;;;;;;;15.83;90.16;99978.53;5014349;28;1543;-85
2022/09/10 03:23:49;;;;;;;;;;;;;;;15.82;90.35;99985.19;5026939;28;1961;-85
2022/09/10 03:26:16;;;;;;;;;;;;;;;15.76;91.05;99980.16;5037142;28;1743;-85
2022/09/10 03:28:42;;;;;;;;;;;;;;;15.76;90.52;99982.91;5028248;28;1699;-85
2022/09/10 03:31:07;;;;;;;;;;;;;;;15.77;90.86;99981.78;5027940;28;1250;-85
2022/09/10 03:33:33;;;;;;;;;;;;;;;15.75;91.11;99981.28;5018766;28;1311;-86
2022/09/10 03:35:59;;;;;;;;;;;;;;;15.75;90.61;99978.53;5018142;28;1346;-86
2022/09/10 03:38:26;;;;;;;;;;;;;;;15.76;90.90;99983.72;5028303;28;1413;-85
2022/09/10 03:40:52;;;;;;;;;;;;;;;15.65;91.31;99987.97;5029808;28;1459;-85
2022/09/10 03:43:18;;;;;;;;;;;;;;;15.70;91.29;99990.56;4998483;28;1910;-85
2022/09/10 03:45:43;;;;;;;;;;;;;;;15.73;90.96;99992.69;5023179;28;1647;-84
2022/09/10 03:48:08;;;;;;;;;;;;;;;15.72;91.04;99985.53;5016244;28;1045;-85
2022/09/10 03:50:34;;;;;;;;;;;;;;;15.69;90.85;99986.19;5016767;28;1299;-85
2022/09/10 03:53:02;;;;;;;;;;;;;;;15.73;91.15;99986.34;5033664;28;1518;-86
2022/09/10 03:55:29;;;;;;;;;;;;;;;15.62;90.87;99985.88;5014240;28;1296;-85
2022/09/10 03:57:54;;;;;;;;;;;;;;;15.63;91.36;99981.16;5028613;28;1368;-84
2022/09/10 04:00:19;;;;;;;;;;;;;;;15.67;91.20;99987.66;5027564;28;1109;-85
2022/09/10 04:02:45;;;;;;;;;;;;;;;15.59;91.24;99985.72;5017808;28;1322;-85
2022/09/10 04:05:10;;;;;;;;;;;;;;;15.60;91.64;99981.81;5033109;28;1906;-85
2022/09/10 04:07:36;;;;;;;;;;;;;;;15.58;91.42;99978.56;5022933;28;1384;-86
2022/09/10 04:10:02;;;;;;;;;;;;;;;15.57;91.73;99988.00;5001635;28;1494;-85
2022/09/10 04:12:27;;;;;;;;;;;;;;;15.58;91.38;99987.66;5018816;28;1520;-86
2022/09/10 04:14:52;;;;;;;;;;;;;;;15.57;91.63;99980.50;5034127;28;1386;-85
2022/09/10 04:17:17;;;;;;;;;;;;;;;15.54;91.64;99980.38;5022626;28;1850;-85
2022/09/10 04:19:43;;;;;;;;;;;;;;;15.52;91.72;99975.13;5039658;28;1875;-85
2022/09/10 04:22:08;;;;;;;;;;;;;;;15.46;92.15;99982.78;5006641;28;1514;-86
2022/09/10 04:24:33;;;;;;;;;;;;;;;15.45;91.93;99985.84;5012927;28;1874;-86
2022/09/10 04:26:58;;;;;;;;;;;;;;;15.49;92.21;99984.88;5017357;28;1505;-86
2022/09/10 04:29:24;;;;;;;;;;;;;;;15.45;92.11;99980.34;5025168;28;1482;-86
2022/09/10 04:31:49;;;;;;;;;;;;;;;15.42;92.05;99987.31;5019400;28;1591;-85
2022/09/10 04:34:15;;;;;;;;;;;;;;;15.40;92.14;99988.75;5013269;28;1403;-85
2022/09/10 04:36:40;;;;;;;;;;;;;;;15.38;92.12;99997.38;5030079;28;1568;-85
2022/09/10 04:39:05;;;;;;;;;;;;;;;15.34;92.21;99992.81;5013785;28;1644;-85
2022/09/10 04:41:30;;;;;;;;;;;;;;;15.34;92.05;99996.41;5005966;28;1534;-85
2022/09/10 04:43:56;;;;;;;;;;;;;;;15.31;92.58;100001.78;5027757;28;1973;-85
2022/09/10 04:46:22;;;;;;;;;;;;;;;15.28;92.58;100000.47;5023425;28;1279;-85
2022/09/10 04:48:47;;;;;;;;;;;;;;;15.28;92.43;99997.72;5022918;28;1363;-85
2022/09/10 04:51:12;;;;;;;;;;;;;;;15.28;91.88;99992.19;5027755;28;1384;-84
2022/09/10 04:53:38;;;;;;;;;;;;;;;15.22;92.23;99999.00;5014193;28;1697;-85
2022/09/10 04:56:03;;;;;;;;;;;;;;;15.20;92.80;100000.47;5015090;28;1773;-85
2022/09/10 04:58:30;;;;;;;;;;;;;;;15.19;92.90;100005.16;5010903;28;1607;-85
2022/09/10 05:00:55;;;;;;;;;;;;;;;15.17;93.00;99996.38;5021991;28;1274;-85
2022/09/10 05:03:21;;;;;;;;;;;;;;;15.12;92.87;99999.31;5018965;28;1965;-85
2022/09/10 05:05:46;;;;;;;;;;;;;;;15.11;93.08;99997.69;5051135;28;1210;-85
2022/09/10 05:08:12;;;;;;;;;;;;;;;15.06;92.99;99995.06;5022509;28;1576;-85
2022/09/10 05:10:39;;;;;;;;;;;;;;;15.05;93.09;99999.81;5016482;28;1435;-85
2022/09/10 05:13:04;;;;;;;;;;;;;;;15.08;93.64;99999.13;5036806;28;1210;-85
2022/09/10 05:15:30;;;;;;;;;;;;;;;15.11;93.50;99997.69;5023740;28;1467;-85
2022/09/10 05:17:55;;;;;;;;;;;;;;;15.04;93.50;100003.69;5028835;28;1697;-85
2022/09/10 05:20:20;;;;;;;;;;;;;;;15.05;93.28;100004.50;5020191;28;1445;-86
2022/09/10 05:22:46;;;;;;;;;;;;;;;15.07;93.08;100005.78;5019855;28;1808;-85
2022/09/10 05:25:11;;;;;;;;;;;;;;;15.11;93.50;100000.44;5020029;28;1953;-85
2022/09/10 05:27:36;;;;;;;;;;;;;;;15.05;93.27;100010.81;5016504;28;1574;-85
2022/09/10 05:30:02;;;;;;;;;;;;;;;15.07;93.81;100013.25;5019095;28;1226;-85
2022/09/10 05:32:27;;;;;;;;;;;;;;;15.08;92.88;100009.34;5017720;28;1470;-85
2022/09/10 05:34:52;;;;;;;;;;;;;;;15.15;93.27;100010.50;5034882;28;1288;-85
2022/09/10 05:37:18;;;;;;;;;;;;;;;15.24;93.33;100001.41;5037343;28;1367;-85
2022/09/10 05:39:43;;;;;;;;;;;;;;;15.35;92.97;99997.22;5010080;28;1578;-85
2022/09/10 05:42:08;;;;;;;;;;;;;;;15.42;92.34;99998.34;5030415;28;1801;-84
2022/09/10 05:44:34;;;;;;;;;;;;;;;15.32;91.94;99997.84;5025021;28;1891;-85
2022/09/10 05:46:59;;;;;;;;;;;;;;;15.28;92.17;100003.22;5013064;28;1784;-85
2022/09/10 05:49:24;;;;;;;;;;;;;;;15.37;92.42;100008.72;5010990;28;1888;-85
2022/09/10 05:51:49;;;;;;;;;;;;;;;15.39;92.02;100004.53;5020346;28;1367;-85
2022/09/10 05:54:15;;;;;;;;;;;;;;;15.43;92.09;99991.69;5038425;28;839;-85
2022/09/10 05:56:40;;;;;;;;;;;;;;;15.44;92.74;99993.31;5029458;28;1355;-85
2022/09/10 05:59:05;;;;;;;;;;;;;;;15.48;92.25;100005.31;5018552;28;803;-85
2022/09/10 06:01:30;;;;;;;;;;;;;;;15.51;92.40;100004.66;5016862;28;1583;-85
2022/09/10 06:03:56;;;;;;;;;;;;;;;15.54;92.29;99997.72;5019649;28;1973;-84
2022/09/10 06:06:21;;;;;;;;;;;;;;;15.51;91.95;99998.34;5025084;28;1344;-87
2022/09/10 06:08:49;;;;;;;;;;;;;;;15.59;92.03;100002.25;5028197;28;1761;-85
2022/09/10 06:11:14;;;;;;;;;;;;;;;15.67;91.34;99995.91;5015939;28;1702;-84
2022/09/10 06:13:42;;;;;;;;;;;;;;;15.73;91.99;100005.66;5007181;28;1241;-84
2022/09/10 06:16:08;;;;;;;;;;;;;;;15.76;91.28;100000.28;5030949;28;1478;-86
2022/09/10 06:18:33;;;;;;;;;;;;;;;15.78;91.21;99995.25;4997241;28;1178;-86
2022/09/10 06:21:06;;;;;;;;;;;;;;;15.86;91.47;99996.38;4997900;28;669;-84
2022/09/10 06:23:31;;;;;;;;;;;;;;;15.92;91.05;99995.06;4997052;28;1942;-86
2022/09/10 06:26:00;;;;;;;;;;;;;;;15.97;90.60;99996.84;5013853;28;1303;-85
2022/09/10 06:28:27;;;;;;;;;;;;;;;15.89;91.07;99996.56;5005360;28;1451;-85
2022/09/10 06:30:52;;;;;;;;;;;;;;;15.92;90.74;100000.59;4999870;28;1299;-85
2022/09/10 06:33:18;;;;;;;;;;;;;;;15.88;90.79;100005.97;5017677;28;1033;-86
2022/09/10 06:35:50;;;;;;;;;;;;;;;15.91;90.89;99998.97;5008403;28;1584;-85
2022/09/10 06:38:15;;;;;;;;;;;;;;;15.91;90.59;100004.47;5012772;28;1471;-84
2022/09/10 06:40:49;;;;;;;;;;;;;;;15.93;91.08;100002.22;5018839;28;1238;-86
2022/09/10 06:43:16;;;;;;;;;;;;;;;15.91;91.58;100001.72;5034880;28;1744;-86
2022/09/10 06:45:41;;;;;;;;;;;;;;;15.92;91.28;99997.81;4983437;28;1006574;-86
2022/09/10 06:48:06;;;;;;;;;;;;;;;15.94;91.50;99998.31;5019588;28;1565;-84
2022/09/10 06:50:31;;;;;;;;;;;;;;;15.93;90.62;100002.22;5018591;28;1383;-84
2022/09/10 06:52:56;;;;;;;;;;;;;;;15.93;90.80;100010.50;5029454;28;1725;-87
2022/09/10 06:55:21;;;;;;;;;;;;;;;15.81;90.63;100005.66;5017415;28;1294;-86
2022/09/10 06:57:46;;;;;;;;;;;;;;;15.85;90.96;100006.59;5019543;28;1395;-85
2022/09/10 07:00:13;;;;;;;;;;;;;;;15.92;91.60;100008.88;5046640;28;1581;-85
2022/09/10 07:02:38;;;;;;;;;;;;;;;15.99;91.07;100008.38;5039196;28;886;-86
2022/09/10 07:05:03;;;;;;;;;;;;;;;16.05;91.03;100023.63;5034646;28;1906;-85
2022/09/10 07:07:28;;;;;;;;;;;;;;;16.04;91.30;100016.47;5035624;28;1765;-86
2022/09/10 07:09:54;;;;;;;;;;;;;;;16.05;91.54;100023.63;5025043;28;1478;-85
2022/09/10 07:12:20;;;;;;;;;;;;;;;16.02;91.82;100022.31;5031103;28;1403;-85
2022/09/10 07:14:45;;;;;;;;;;;;;;;16.05;91.82;100024.44;5037439;28;1472;-85
2022/09/10 07:17:10;;;;;;;;;;;;;;;16.04;91.70;100022.81;5021595;28;1804;-85
2022/09/10 07:19:36;;;;;;;;;;;;;;;16.06;91.52;100028.00;5017792;28;1205;-85
2022/09/10 07:22:02;;;;;;;;;;;;;;;16.09;91.53;100032.84;5042828;28;1391;-85
2022/09/10 07:24:27;;;;;;;;;;;;;;;16.09;91.64;100030.09;5040181;28;1957;-84
2022/09/10 07:26:52;;;;;;;;;;;;;;;16.14;91.62;100030.75;5015460;28;1393;-84
2022/09/10 07:29:17;;;;;;;;;;;;;;;16.23;91.75;100031.53;5028872;28;1359;-85
2022/09/10 07:31:42;;;;;;;;;;;;;;;16.30;92.00;100032.97;5037054;28;1334;-86
2022/09/10 07:34:07;;;;;;;;;;;;;;;16.33;91.81;100033.13;5025605;28;1697;-85
2022/09/10 07:36:33;;;;;;;;;;;;;;;16.33;91.93;100037.84;5029880;28;1307;-86
2022/09/10 07:39:02;;;;;;;;;;;;;;;16.23;92.18;100034.31;5033541;28;1465;-85
2022/09/10 07:41:28;;;;;;;;;;;;;;;16.26;91.86;100039.16;5024137;28;1138;-85
2022/09/10 07:43:54;;;;;;;;;;;;;;;16.27;92.07;100046.28;5022757;28;1893;-85
2022/09/10 07:46:19;;;;;;;;;;;;;;;16.20;91.59;100040.47;5026632;28;1302;-85
2022/09/10 07:48:47;;;;;;;;;;;;;;;16.15;91.48;100048.94;5016743;28;938;-85
2022/09/10 07:51:12;;;;;;;;;;;;;;;16.10;92.01;100051.88;5016495;28;953;-85
2022/09/10 07:53:37;;;;;;;;;;;;;;;16.08;92.93;100045.84;5016307;28;1807;-85
2022/09/10 07:56:04;;;;;;;;;;;;;;;16.06;93.24;100055.63;5014764;28;1558;-85
2022/09/10 07:58:30;;;;;;;;;;;;;;;16.10;92.66;100060.16;5023434;28;1314;-86
2022/09/10 08:00:55;;;;;;;;;;;;;;;16.15;92.54;100060.00;5019766;28;1404;-85
2022/09/10 08:03:20;;;;;;;;;;;;;;;16.18;92.96;100048.28;5035411;28;992;-85
2022/09/10 08:05:47;;;;;;;;;;;;;;;16.18;92.97;100052.97;5036231;28;1894;-86
2022/09/10 08:08:12;;;;;;;;;;;;;;;16.16;93.08;100061.59;5020222;28;1051;-85
2022/09/10 08:10:37;;;;;;;;;;;;;;;16.16;92.77;100056.06;5018913;28;1702;-85
2022/09/10 08:13:02;;;;;;;;;;;;;;;16.21;92.52;100055.09;5011137;28;1230;-86
2022/09/10 08:15:27;;;;;;;;;;;;;;;16.37;91.66;100052.59;5034627;28;1370;-85
2022/09/10 08:17:53;;;;;;;;;;;;;;;16.43;90.94;100057.63;5034928;28;1068;-85
2022/09/10 08:20:18;;;;;;;;;;;;;;;16.54;91.95;100069.94;5003619;28;1629;-86
2022/09/10 08:22:43;;;;;;;;;;;;;;;16.62;91.76;100060.84;5002832;28;1424;-85
2022/09/10 08:25:09;;;;;;;;;;;;;;;16.68;90.97;100072.50;5024193;28;1965;-85
2022/09/10 08:27:34;;;;;;;;;;;;;;;16.72;90.71;100070.72;5020198;28;1501;-85
2022/09/10 08:30:00;;;;;;;;;;;;;;;16.81;91.12;100067.91;4995453;28;1289;-85
2022/09/10 08:32:26;;;;;;;;;;;;;;;16.84;90.04;100075.56;4997105;28;1397;-85
2022/09/10 08:34:52;;;;;;;;;;;;;;;16.84;90.32;100072.78;4997102;28;855;-85
2022/09/10 08:37:17;;;;;;;;;;;;;;;16.84;90.67;100070.81;5018958;28;1578;-85
2022/09/10 08:39:42;;;;;;;;;;;;;;;16.78;90.03;100071.31;5015488;28;1223;-85
2022/09/10 08:42:18;;;;;;;;;;;;;;;16.70;91.18;100078.53;5029884;28;1050;-84
2022/09/10 08:44:52;;;;;;;;;;;;;;;16.70;90.78;100080.47;5008233;28;1968;-85
2022/09/10 08:47:41;;;;;;;;;;;;;;;16.68;91.01;100086.31;5041631;28;1300;-85
2022/09/10 08:50:26;;;;;;;;;;;;;;;16.74;89.86;100082.25;5023823;28;1776;-85
2022/09/10 08:53:02;;;;;;;;;;;;;;;16.83;89.21;100085.78;5017307;28;1578;-85
2022/09/10 08:55:32;;;;;;;;;;;;;;;16.86;90.04;100087.88;5037801;28;1332;-85
2022/09/10 08:58:01;;;;;;;;;;;;;;;16.84;90.88;100089.38;5021763;28;1363;-85
2022/09/10 09:00:32;;;;;;;;;;;;;;;16.81;89.77;100088.06;5019685;28;1768;-85
2022/09/10 09:03:01;;;;;;;;;;;;;;;16.78;90.72;100093.44;5035303;28;1355;-86
2022/09/10 09:05:28;;;;;;;;;;;;;;;16.76;90.04;100091.00;5035724;28;1898;-86
2022/09/10 09:07:54;;;;;;;;;;;;;;;16.75;90.00;100097.69;5031780;28;1834;-86
2022/09/10 09:10:26;;;;;;;;;;;;;;;16.74;92.08;100098.84;5015737;28;1189;-86
2022/09/10 09:12:58;;;;;;;;;;;;;;;16.66;93.20;100096.91;5038799;28;1286;-86
2022/09/10 09:15:30;;;;;;;;;;;;;;;16.56;92.39;100091.72;5029131;28;1362;-86
2022/09/10 09:18:02;;;;;;;;;;;;;;;16.52;93.11;100093.50;5022619;28;1642;-86
2022/09/10 09:20:46;;;;;;;;;;;;;;;16.60;93.53;100100.94;5001311;28;1536;-86
2022/09/10 09:23:22;;;;;;;;;;;;;;;16.66;94.51;100102.44;5037921;28;1962;-85
2022/09/10 09:26:05;;;;;;;;;;;;;;;16.68;94.90;100104.84;5048218;28;1943;-86
2022/09/10 09:28:48;;;;;;;;;;;;;;;16.62;94.47;100101.47;5027404;28;1280;-85
2022/09/10 09:31:15;;;;;;;;;;;;;;;16.56;95.79;100095.28;5026239;28;1665;-85
2022/09/10 09:33:41;;;;;;;;;;;;;;;16.50;95.73;100098.56;5017125;28;2189;-84
2022/09/10 09:36:11;;;;;;;;;;;;;;;16.44;95.90;100105.38;5028432;28;1335;-85
2022/09/10 09:38:41;;;;;;;;;;;;;;;16.37;96.71;100088.50;5024974;28;1509;-85
2022/09/10 09:41:14;;;;;;;;;;;;;;;16.30;97.44;100088.22;5023201;28;1540;-86
2022/09/10 09:43:39;;;;;;;;;;;;;;;16.20;98.36;100100.41;5033701;28;1961;-86
2022/09/10 09:46:06;;;;;;;;;;;;;;;16.14;98.64;100101.72;5019827;28;1403;-85
2022/09/10 09:48:38;;;;;;;;;;;;;;;16.14;99.30;100098.97;5017077;28;1345;-86
2022/09/10 09:51:03;;;;;;;;;;;;;;;16.18;99.41;100100.72;5033840;28;1721;-86
2022/09/10 09:53:29;;;;;;;;;;;;;;;16.19;99.18;100102.34;5002797;28;1328;-86
2022/09/10 09:55:56;;;;;;;;;;;;;;;16.19;99.44;100099.59;5010539;28;1378;-85
2022/09/10 09:58:22;;;;;;;;;;;;;;;16.25;99.27;100103.81;5012868;28;1306;-86
2022/09/10 10:00:51;;;;;;;;;;;;;;;16.27;99.75;100097.97;5026227;28;1452;-85
2022/09/10 10:03:23;;;;;;;;;;;;;;;16.30;99.49;100100.06;5030044;28;1308;-85
2022/09/10 10:05:48;;;;;;;;;;;;;;;16.37;98.66;100100.38;5036419;28;1969;-84
2022/09/10 10:08:27;;;;;;;;;;;;;;;16.46;98.39;100097.59;5028561;28;1415;-85
2022/09/10 10:10:52;;;;;;;;;;;;;;;16.56;98.22;100098.06;5017580;28;1240;-85
2022/09/10 10:13:21;;;;;;;;;;;;;;;16.75;98.82;100094.13;5018312;28;1264;-86
2022/09/10 10:15:47;;;;;;;;;;;;;;;17.07;96.92;100087.13;5015988;28;1303;-85
2022/09/10 10:18:31;;;;;;;;;;;;;;;17.29;96.43;100087.63;5004633;28;1430;-85
2022/09/10 10:21:10;;;;;;;;;;;;;;;17.30;96.97;100086.50;5014562;28;1353;-85
2022/09/10 10:23:36;;;;;;;;;;;;;;;17.24;96.04;100089.78;5028538;28;1890;-87
2022/09/10 10:26:15;;;;;;;;;;;;;;;17.25;97.16;100080.34;5012112;28;1479;-86
2022/09/10 10:28:43;;;;;;;;;;;;;;;17.29;98.04;100075.75;5038597;28;1165;-85
2022/09/10 10:31:08;;;;;;;;;;;;;;;17.35;97.02;100088.28;5020295;28;1160;-86
2022/09/10 10:33:34;;;;;;;;;;;;;;;17.47;97.17;100080.03;5019046;28;1418;-86
2022/09/10 10:36:21;;;;;;;;;;;;;;;17.51;97.14;100082.94;5002964;28;1301;-86
2022/09/10 10:38:54;;;;;;;;;;;;;;;17.44;98.57;100071.63;5052920;28;1175;-86
2022/09/10 10:41:25;;;;;;;;;;;;;;;17.29;97.28;100073.81;5036869;28;1732;-86
2022/09/10 10:44:09;;;;;;;;;;;;;;;17.24;98.37;100076.78;5004826;28;1902;-86
2022/09/10 10:46:41;;;;;;;;;;;;;;;17.17;97.18;100078.47;5035285;28;1401;-86
2022/09/10 10:49:31;;;;;;;;;;;;;;;17.04;97.80;100080.31;5014064;28;1420;-86
2022/09/10 10:52:11;;;;;;;;;;;;;;;16.93;98.54;100074.34;5018462;28;1366;-86
2022/09/10 10:54:36;;;;;;;;;;;;;;;16.85;98.65;100077.97;5017686;28;1671;-86
2022/09/10 10:57:10;;;;;;;;;;;;;;;16.78;99.54;100083.19;5028470;23;1819;-87
2022/09/10 10:59:56;;;;;;;;;;;;;;;16.79;100.00;100086.78;5006639;28;1048;-87
2022/09/10 11:02:26;;;;;;;;;;;;;;;16.80;100.00;100082.88;5013949;28;1296;-87
2022/09/10 11:04:53;;;;;;;;;;;;;;;16.86;100.00;100076.81;5006677;28;1902;-87
2022/09/10 11:07:28;;;;;;;;;;;;;;;16.92;100.00;100078.28;5014363;28;1347;-87
2022/09/10 11:10:00;;;;;;;;;;;;;;;16.95;100.00;100080.34;5012838;28;1208;-87
2022/09/10 11:12:33;;;;;;;;;;;;;;;16.95;100.00;100083.13;5013528;28;1329;-87
2022/09/10 11:15:10;;;;;;;;;;;;;;;16.95;100.00;100082.31;5013257;28;1284;-87
2022/09/10 11:17:38;;;;;;;;;;;;;;;16.91;100.00;100076.66;5012468;28;1852;-87
2022/09/10 11:20:17;;;;;;;;;;;;;;;16.91;100.00;100078.59;5013859;28;1288;-87
2022/09/10 11:22:56;;;;;;;;;;;;;;;16.87;99.50;100072.91;5013235;28;1331;-87
2022/09/10 11:25:26;;;;;;;;;;;;;;;16.86;100.00;100071.28;5013169;28;1891;-87
2022/09/10 11:28:09;;;;;;;;;;;;;;;16.85;100.00;100075.19;5013709;28;1598;-87
2022/09/10 11:30:37;;;;;;;;;;;;;;;16.82;100.00;100081.41;5012777;28;1399;-87
2022/09/10 11:33:04;;;;;;;;;;;;;;;16.81;99.50;100078.97;5012034;28;1407;-88
2022/09/10 11:35:32;;;;;;;;;;;;;;;16.83;100.00;100080.25;5012251;28;1439;-88
2022/09/10 11:38:17;;;;;;;;;;;;;;;16.82;100.00;100067.59;5012062;28;1276;-88
2022/09/10 11:40:45;;;;;;;;;;;;;;;16.81;100.00;100074.25;4994320;28;1499;-88
2022/09/10 11:43:24;;;;;;;;;;;;;;;16.82;100.00;100077.81;4996013;28;1321;-87
2022/09/10 11:45:55;;;;;;;;;;;;;;;16.77;100.00;100076.03;5010143;28;1894;-88
2022/09/10 11:48:21;;;;;;;;;;;;;;;16.75;100.00;100085.84;5012226;28;1423;-87
2022/09/10 11:50:50;;;;;;;;;;;;;;;16.71;100.00;100082.91;5014573;28;1086;-87
2022/09/10 11:53:16;;;;;;;;;;;;;;;16.67;100.00;100081.97;5012408;28;1324;-87
2022/09/10 11:55:44;;;;;;;;;;;;;;;16.61;100.00;100074.97;5012574;28;1372;-87
2022/09/10 11:58:16;;;;;;;;;;;;;;;16.58;100.00;100083.91;5013724;28;863;-87
2022/09/10 12:01:07;;;;;;;;;;;;;;;16.57;100.00;100085.06;5012374;28;1434;-88
2022/09/10 12:03:48;;;;;;;;;;;;;;;16.55;100.00;100082.63;5011220;28;1906;-88
2022/09/10 12:06:16;;;;;;;;;;;;;;;16.57;100.00;100085.88;5013014;28;1247;-87
2022/09/10 12:08:50;;;;;;;;;;;;;;;16.61;100.00;100086.84;5010312;28;1542;-87
2022/09/10 12:11:23;;;;;;;;;;;;;;;16.60;100.00;100079.66;5000635;28;1510;-88
2022/09/10 12:13:49;;;;;;;;;;;;;;;16.61;100.00;100084.06;5008784;28;1213;-86
2022/09/10 12:16:20;;;;;;;;;;;;;;;16.58;100.00;100075.63;5012652;28;1373;-87
2022/09/10 12:18:48;;;;;;;;;;;;;;;16.60;100.00;100076.09;5015517;28;1037;-87
2022/09/10 12:21:26;;;;;;;;;;;;;;;16.61;100.00;100081.31;5011342;28;1650;-87
2022/09/10 12:23:53;;;;;;;;;;;;;;;16.62;100.00;100079.38;5005741;28;1906;-87
2022/09/10 12:26:19;;;;;;;;;;;;;;;16.67;100.00;100083.91;4996083;28;1585;-87
2022/09/10 12:28:44;;;;;;;;;;;;;;;16.70;100.00;100080.47;5009944;28;940;-87
2022/09/10 12:31:10;;;;;;;;;;;;;;;16.70;100.00;100072.19;5012111;28;1325;-87
2022/09/10 12:33:44;;;;;;;;;;;;;;;16.70;100.00;100077.69;5013498;28;1073;-87
2022/09/10 12:36:12;;;;;;;;;;;;;;;16.73;100.00;100072.34;5012731;28;1475;-87
2022/09/10 12:38:44;;;;;;;;;;;;;;;16.78;100.00;100071.31;5011767;28;1594;-87
2022/09/10 12:41:11;;;;;;;;;;;;;;;16.79;100.00;100070.19;5017292;28;1637;-87
2022/09/10 12:43:39;;;;;;;;;;;;;;;16.78;100.00;100061.09;5007458;28;1957;-87
2022/09/10 12:46:07;;;;;;;;;;;;;;;16.78;100.00;100063.03;5016649;28;1233;-87
2022/09/10 12:48:34;;;;;;;;;;;;;;;16.79;100.00;100062.72;5011724;28;1709;-88
2022/09/10 12:51:03;;;;;;;;;;;;;;;16.75;100.00;100067.28;5012807;28;1215;-87
2022/09/10 12:53:47;;;;;;;;;;;;;;;16.78;100.00;100063.03;5025976;28;1332;-87
2022/09/10 12:56:21;;;;;;;;;;;;;;;16.82;100.00;100061.25;5013039;28;1620;-88